sensor_id;sensor_type;location;lat;lon;timestamp;pressure;altitude;pressure_sealevel;temperature;humidity
29371;BME280;16357;52.188;7.838;2023-02-02T00:01:37;101088.13;;;6.71;67.54
29371;BME280;16357;52.188;7.838;2023-02-02T00:04:03;101082.78;;;6.71;67.50
29371;BME280;16357;52.188;7.838;2023-02-02T00:06:31;101082.78;;;6.71;67.46
29371;BME280;16357;52.188;7.838;2023-02-02T00:08:59;101091.53;;;6.73;67.64
29371;BME280;16357;52.188;7.838;2023-02-02T00:11:26;101072.88;;;6.73;67.10
29371;BME280;16357;52.188;7.838;2023-02-02T00:13:53;101082.53;;;6.74;67.11
29371;BME280;16357;52.188;7.838;2023-02-02T00:16:33;101085.94;;;6.76;67.20
29371;BME280;16357;52.188;7.838;2023-02-02T00:19:10;101079.78;;;6.75;67.06
29371;BME280;16357;52.188;7.838;2023-02-02T00:21:38;101074.44;;;6.75;67.55
29371;BME280;16357;52.188;7.838;2023-02-02T00:24:06;101076.25;;;6.75;67.00
29371;BME280;16357;52.188;7.838;2023-02-02T00:26:33;101079.78;;;6.75;67.15
29371;BME280;16357;52.188;7.838;2023-02-02T00:29:00;101088.59;;;6.76;67.17
29371;BME280;16357;52.188;7.838;2023-02-02T00:31:27;101081.59;;;6.75;66.83
29371;BME280;16357;52.188;7.838;2023-02-02T00:33:53;101070.09;;;6.74;67.22
29371;BME280;16357;52.188;7.838;2023-02-02T00:36:20;101078.94;;;6.75;67.25
29371;BME280;16357;52.188;7.838;2023-02-02T00:38:48;101093.22;;;6.74;67.47
29371;BME280;16357;52.188;7.838;2023-02-02T00:41:15;101083.53;;;6.73;66.97
29371;BME280;16357;52.188;7.838;2023-02-02T00:43:42;101080.88;;;6.73;67.26
29371;BME280;16357;52.188;7.838;2023-02-02T00:46:12;101081.84;;;6.72;66.98
29371;BME280;16357;52.188;7.838;2023-02-02T00:48:39;101076.63;;;6.70;67.33
29371;BME280;16357;52.188;7.838;2023-02-02T00:51:06;101070.44;;;6.70;67.12
29371;BME280;16357;52.188;7.838;2023-02-02T00:53:32;101076.88;;;6.67;67.06
29371;BME280;16357;52.188;7.838;2023-02-02T00:55:59;101082.22;;;6.67;67.33
29371;BME280;16357;52.188;7.838;2023-02-02T00:58:25;101084.03;;;6.67;67.60
29371;BME280;16357;52.188;7.838;2023-02-02T01:00:52;101093.97;;;6.65;67.47
29371;BME280;16357;52.188;7.838;2023-02-02T01:03:18;101092.28;;;6.64;67.47
29371;BME280;16357;52.188;7.838;2023-02-02T01:05:45;101102.06;;;6.63;67.73
29371;BME280;16357;52.188;7.838;2023-02-02T01:08:11;101104.88;;;6.62;67.71
29371;BME280;16357;52.188;7.838;2023-02-02T01:10:38;101098.56;;;6.63;67.53
29371;BME280;16357;52.188;7.838;2023-02-02T01:13:04;101108.28;;;6.64;67.53
29371;BME280;16357;52.188;7.838;2023-02-02T01:15:31;101102.94;;;6.64;67.29
29371;BME280;16357;52.188;7.838;2023-02-02T01:17:58;101102.94;;;6.64;67.67
29371;BME280;16357;52.188;7.838;2023-02-02T01:20:24;101097.59;;;6.64;67.65
29371;BME280;16357;52.188;7.838;2023-02-02T01:22:51;101110.81;;;6.65;67.46
29371;BME280;16357;52.188;7.838;2023-02-02T01:25:17;101112.50;;;6.66;67.39
29371;BME280;16357;52.188;7.838;2023-02-02T01:27:44;101109.72;;;6.68;67.31
29371;BME280;16357;52.188;7.838;2023-02-02T01:30:11;101107.19;;;6.66;67.38
29371;BME280;16357;52.188;7.838;2023-02-02T01:32:38;101109.72;;;6.68;66.99
29371;BME280;16357;52.188;7.838;2023-02-02T01:35:05;101120.38;;;6.68;67.08
29371;BME280;16357;52.188;7.838;2023-02-02T01:37:31;101114.06;;;6.69;67.43
29371;BME280;16357;52.188;7.838;2023-02-02T01:39:58;101118.31;;;6.71;67.25
29371;BME280;16357;52.188;7.838;2023-02-02T01:42:25;101131.53;;;6.73;67.46
29371;BME280;16357;52.188;7.838;2023-02-02T01:47:20;101123.28;;;6.76;67.12
29371;BME280;16357;52.188;7.838;2023-02-02T01:49:48;101117.94;;;6.76;67.30
29371;BME280;16357;52.188;7.838;2023-02-02T01:52:16;101127.50;;;6.78;67.42
29371;BME280;16357;52.188;7.838;2023-02-02T01:54:48;101131.75;;;6.81;67.51
29371;BME280;16357;52.188;7.838;2023-02-02T01:57:21;101127.16;;;6.83;67.77
29371;BME280;16357;52.188;7.838;2023-02-02T01:59:50;101128.00;;;6.84;67.72
29371;BME280;16357;52.188;7.838;2023-02-02T02:02:18;101139.50;;;6.84;67.80
29371;BME280;16357;52.188;7.838;2023-02-02T02:04:45;101131.25;;;6.87;67.37
29371;BME280;16357;52.188;7.838;2023-02-02T02:07:12;101138.31;;;6.88;67.57
29371;BME280;16357;52.188;7.838;2023-02-02T02:09:39;101143.50;;;6.90;67.61
29371;BME280;16357;52.188;7.838;2023-02-02T02:12:13;101144.22;;;6.92;67.49
29371;BME280;16357;52.188;7.838;2023-02-02T02:14:43;101147.75;;;6.92;67.50
29371;BME280;16357;52.188;7.838;2023-02-02T02:34:52;101149.44;;;7.04;67.79
29371;BME280;16357;52.188;7.838;2023-02-02T02:37:32;101157.19;;;7.08;67.82
29371;BME280;16357;52.188;7.838;2023-02-02T02:42:52;101157.91;;;7.10;67.72
29371;BME280;16357;52.188;7.838;2023-02-02T02:45:21;101159.59;;;7.11;67.92
29371;BME280;16357;52.188;7.838;2023-02-02T02:47:50;101161.31;;;7.12;67.96
29371;BME280;16357;52.188;7.838;2023-02-02T02:50:17;101154.03;;;7.14;68.10
29371;BME280;16357;52.188;7.838;2023-02-02T02:52:44;101152.94;;;7.16;68.16
29371;BME280;16357;52.188;7.838;2023-02-02T02:55:13;101150.13;;;7.18;68.43
29371;BME280;16357;52.188;7.838;2023-02-02T03:03:38;101162.59;;;7.29;68.56
29371;BME280;16357;52.188;7.838;2023-02-02T03:08:52;101148.63;;;7.36;68.50
29371;BME280;16357;52.188;7.838;2023-02-02T03:11:20;101155.44;;;7.40;68.52
29371;BME280;16357;52.188;7.838;2023-02-02T03:13:46;101160.38;;;7.45;68.85
29371;BME280;16357;52.188;7.838;2023-02-02T03:16:15;101144.97;;;7.48;68.69
29371;BME280;16357;52.188;7.838;2023-02-02T03:18:41;101146.28;;;7.54;68.70
29371;BME280;16357;52.188;7.838;2023-02-02T03:21:08;101153.19;;;7.57;68.88
29371;BME280;16357;52.188;7.838;2023-02-02T03:23:34;101146.75;;;7.59;68.86
29371;BME280;16357;52.188;7.838;2023-02-02T03:26:01;101148.16;;;7.63;68.90
29371;BME280;16357;52.188;7.838;2023-02-02T03:28:28;101138.09;;;7.67;68.38
29371;BME280;16357;52.188;7.838;2023-02-02T03:30:56;101152.88;;;7.71;68.76
29371;BME280;16357;52.188;7.838;2023-02-02T03:33:24;101150.94;;;7.73;68.80
29371;BME280;16357;52.188;7.838;2023-02-02T03:35:50;101147.03;;;7.77;68.96
29371;BME280;16357;52.188;7.838;2023-02-02T03:38:17;101153.81;;;7.81;68.31
29371;BME280;16357;52.188;7.838;2023-02-02T03:40:43;101160.59;;;7.85;68.56
29371;BME280;16357;52.188;7.838;2023-02-02T03:43:10;101144.31;;;7.88;68.75
29371;BME280;16357;52.188;7.838;2023-02-02T03:45:36;101144.88;;;7.92;68.46
29371;BME280;16357;52.188;7.838;2023-02-02T03:48:05;101149.97;;;7.95;68.23
29371;BME280;16357;52.188;7.838;2023-02-02T03:50:32;101157.88;;;7.97;68.35
29371;BME280;16357;52.188;7.838;2023-02-02T03:52:59;101149.47;;;8.01;68.41
29371;BME280;16357;52.188;7.838;2023-02-02T03:55:25;101158.22;;;8.03;68.45
29371;BME280;16357;52.188;7.838;2023-02-02T03:57:52;101158.78;;;8.07;68.55
29371;BME280;16357;52.188;7.838;2023-02-02T04:00:18;101163.88;;;8.10;68.64
29371;BME280;16357;52.188;7.838;2023-02-02T04:02:45;101153.91;;;8.12;68.35
29371;BME280;16357;52.188;7.838;2023-02-02T04:05:11;101155.47;;;8.14;68.61
29371;BME280;16357;52.188;7.838;2023-02-02T04:07:38;101157.03;;;8.17;68.92
29371;BME280;16357;52.188;7.838;2023-02-02T04:10:05;101159.44;;;8.20;68.42
29371;BME280;16357;52.188;7.838;2023-02-02T04:12:31;101157.50;;;8.22;68.50
29371;BME280;16357;52.188;7.838;2023-02-02T04:14:58;101159.91;;;8.25;68.45
29371;BME280;16357;52.188;7.838;2023-02-02T04:17:24;101162.31;;;8.28;68.41
29371;BME280;16357;52.188;7.838;2023-02-02T04:19:50;101166.69;;;8.29;68.74
29371;BME280;16357;52.188;7.838;2023-02-02T04:22:24;101174.44;;;8.32;68.83
29371;BME280;16357;52.188;7.838;2023-02-02T04:24:51;101169.78;;;8.34;68.70
29371;BME280;16357;52.188;7.838;2023-02-02T04:27:17;101170.66;;;8.35;68.91
29371;BME280;16357;52.188;7.838;2023-02-02T04:29:44;101173.34;;;8.35;68.86
29371;BME280;16357;52.188;7.838;2023-02-02T04:32:10;101178.69;;;8.35;68.87
29371;BME280;16357;52.188;7.838;2023-02-02T04:34:37;101174.28;;;8.34;68.93
29371;BME280;16357;52.188;7.838;2023-02-02T04:37:03;101174.44;;;8.32;68.76
29371;BME280;16357;52.188;7.838;2023-02-02T04:39:29;101173.56;;;8.32;68.86
29371;BME280;16357;52.188;7.838;2023-02-02T04:41:56;101175.41;;;8.31;68.80
29371;BME280;16357;52.188;7.838;2023-02-02T04:44:22;101177.22;;;8.31;69.10
29371;BME280;16357;52.188;7.838;2023-02-02T04:46:49;101172.88;;;8.30;69.10
29371;BME280;16357;52.188;7.838;2023-02-02T04:49:15;101179.19;;;8.29;69.11
29371;BME280;16357;52.188;7.838;2023-02-02T04:51:42;101187.19;;;8.29;68.63
29371;BME280;16357;52.188;7.838;2023-02-02T04:54:09;101186.38;;;8.28;68.82
29371;BME280;16357;52.188;7.838;2023-02-02T04:56:35;101184.69;;;8.27;68.61
29371;BME280;16357;52.188;7.838;2023-02-02T04:59:02;101176.78;;;8.26;68.89
29371;BME280;16357;52.188;7.838;2023-02-02T05:01:28;101191.97;;;8.25;68.86
29371;BME280;16357;52.188;7.838;2023-02-02T05:03:56;101188.56;;;8.23;68.40
29371;BME280;16357;52.188;7.838;2023-02-02T05:06:22;101190.53;;;8.21;68.61
29371;BME280;16357;52.188;7.838;2023-02-02T05:08:49;101186.53;;;8.16;68.53
29371;BME280;16357;52.188;7.838;2023-02-02T05:11:18;101190.47;;;8.11;68.36
29371;BME280;16357;52.188;7.838;2023-02-02T05:13:46;101189.28;;;8.04;68.64
29371;BME280;16357;52.188;7.838;2023-02-02T05:16:13;101183.47;;;7.99;68.55
29371;BME280;16357;52.188;7.838;2023-02-02T05:18:40;101184.84;;;7.94;68.74
29371;BME280;16357;52.188;7.838;2023-02-02T05:21:08;101189.00;;;7.86;68.25
29371;BME280;16357;52.188;7.838;2023-02-02T05:23:34;101200.94;;;7.82;68.11
29371;BME280;16357;52.188;7.838;2023-02-02T05:26:01;101198.63;;;7.78;68.39
29371;BME280;16357;52.188;7.838;2023-02-02T05:28:27;101200.72;;;7.74;68.39
29371;BME280;16357;52.188;7.838;2023-02-02T05:30:54;101204.59;;;7.70;68.37
29371;BME280;16357;52.188;7.838;2023-02-02T05:33:21;101200.38;;;7.67;68.62
29371;BME280;16357;52.188;7.838;2023-02-02T05:35:48;101206.81;;;7.65;68.50
29371;BME280;16357;52.188;7.838;2023-02-02T05:38:15;101206.06;;;7.63;68.40
29371;BME280;16357;52.188;7.838;2023-02-02T05:40:41;101207.06;;;7.62;68.49
29371;BME280;16357;52.188;7.838;2023-02-02T05:43:08;101217.84;;;7.60;68.71
29371;BME280;16357;52.188;7.838;2023-02-02T05:45:34;101213.63;;;7.58;68.58
29371;BME280;16357;52.188;7.838;2023-02-02T05:48:01;101203.91;;;7.57;68.64
29371;BME280;16357;52.188;7.838;2023-02-02T05:50:27;101213.88;;;7.55;68.58
29371;BME280;16357;52.188;7.838;2023-02-02T05:52:53;101214.84;;;7.54;68.53
29371;BME280;16357;52.188;7.838;2023-02-02T05:55:20;101215.81;;;7.53;68.72
29371;BME280;16357;52.188;7.838;2023-02-02T05:57:46;101219.47;;;7.52;68.59
29371;BME280;16357;52.188;7.838;2023-02-02T06:00:13;101220.44;;;7.51;68.90
29371;BME280;16357;52.188;7.838;2023-02-02T06:02:39;101223.13;;;7.51;69.06
29371;BME280;16357;52.188;7.838;2023-02-02T06:05:06;101225.78;;;7.51;69.13
29371;BME280;16357;52.188;7.838;2023-02-02T06:07:32;101221.28;;;7.51;69.10
29371;BME280;16357;52.188;7.838;2023-02-02T06:09:59;101225.63;;;7.52;68.61
29371;BME280;16357;52.188;7.838;2023-02-02T06:12:25;101225.63;;;7.52;68.60
29371;BME280;16357;52.188;7.838;2023-02-02T06:14:52;101229.16;;;7.53;68.67
29371;BME280;16357;52.188;7.838;2023-02-02T06:17:18;101222.13;;;7.52;68.42
29371;BME280;16357;52.188;7.838;2023-02-02T06:19:44;101227.47;;;7.52;68.45
29371;BME280;16357;52.188;7.838;2023-02-02T06:22:11;101221.28;;;7.51;68.26
29371;BME280;16357;52.188;7.838;2023-02-02T06:24:37;101223.97;;;7.51;68.48
29371;BME280;16357;52.188;7.838;2023-02-02T06:27:04;101230.25;;;7.50;68.17
29371;BME280;16357;52.188;7.838;2023-02-02T06:29:30;101226.88;;;7.48;67.88
29371;BME280;16357;52.188;7.838;2023-02-02T06:31:57;101241.19;;;7.47;67.89
29371;BME280;16357;52.188;7.838;2023-02-02T06:34:23;101239.59;;;7.44;68.25
29371;BME280;16357;52.188;7.838;2023-02-02T06:36:50;101245.94;;;7.43;68.46
29371;BME280;16357;52.188;7.838;2023-02-02T06:39:16;101249.56;;;7.42;67.82
29371;BME280;16357;52.188;7.838;2023-02-02T06:41:42;101246.19;;;7.40;67.94
29371;BME280;16357;52.188;7.838;2023-02-02T06:44:12;101243.50;;;7.40;67.97
29371;BME280;16357;52.188;7.838;2023-02-02T06:46:41;101250.78;;;7.38;67.96
29371;BME280;16357;52.188;7.838;2023-02-02T06:49:07;101252.63;;;7.38;68.42
29371;BME280;16357;52.188;7.838;2023-02-02T06:51:34;101255.41;;;7.36;67.94
29371;BME280;16357;52.188;7.838;2023-02-02T06:54:00;101259.88;;;7.36;67.89
29371;BME280;16357;52.188;7.838;2023-02-02T06:56:29;101257.31;;;7.34;68.10
29371;BME280;16357;52.188;7.838;2023-02-02T06:58:55;101257.31;;;7.34;67.49
29371;BME280;16357;52.188;7.838;2023-02-02T07:01:21;101258.31;;;7.33;68.24
29371;BME280;16357;52.188;7.838;2023-02-02T07:03:48;101261.81;;;7.34;68.40
29371;BME280;16357;52.188;7.838;2023-02-02T07:06:18;101266.31;;;7.33;68.34
29371;BME280;16357;52.188;7.838;2023-02-02T07:08:46;101277.84;;;7.34;68.31
29371;BME280;16357;52.188;7.838;2023-02-02T07:11:27;101274.31;;;7.33;68.38
29371;BME280;16357;52.188;7.838;2023-02-02T07:14:00;101269.72;;;7.35;68.43
29371;BME280;16357;52.188;7.838;2023-02-02T07:16:26;101280.50;;;7.34;68.71
29371;BME280;16357;52.188;7.838;2023-02-02T07:18:53;101282.22;;;7.35;68.34
29371;BME280;16357;52.188;7.838;2023-02-02T07:21:29;101280.25;;;7.37;68.22
29371;BME280;16357;52.188;7.838;2023-02-02T07:24:01;101283.91;;;7.36;68.49
29371;BME280;16357;52.188;7.838;2023-02-02T07:26:28;101279.56;;;7.35;68.42
29371;BME280;16357;52.188;7.838;2023-02-02T07:28:54;101282.09;;;7.36;68.82
29371;BME280;16357;52.188;7.838;2023-02-02T07:31:24;101284.66;;;7.38;68.87
29371;BME280;16357;52.188;7.838;2023-02-02T07:33:51;101287.31;;;7.38;68.88
29371;BME280;16357;52.188;7.838;2023-02-02T07:36:20;101293.38;;;7.40;68.79
29371;BME280;16357;52.188;7.838;2023-02-02T07:38:47;101293.25;;;7.41;68.97
29371;BME280;16357;52.188;7.838;2023-02-02T07:41:14;101297.59;;;7.42;68.85
29371;BME280;16357;52.188;7.838;2023-02-02T07:43:41;101299.31;;;7.43;68.51
29371;BME280;16357;52.188;7.838;2023-02-02T07:46:09;101298.34;;;7.44;68.99
29371;BME280;16357;52.188;7.838;2023-02-02T07:48:37;101305.25;;;7.47;68.71
29371;BME280;16357;52.188;7.838;2023-02-02T07:51:07;101301.50;;;7.50;69.03
29371;BME280;16357;52.188;7.838;2023-02-02T07:53:34;101306.72;;;7.51;69.04
29371;BME280;16357;52.188;7.838;2023-02-02T07:56:08;101309.13;;;7.54;69.12
29371;BME280;16357;52.188;7.838;2023-02-02T07:58:35;101316.06;;;7.57;68.70
29371;BME280;16357;52.188;7.838;2023-02-02T08:01:04;101313.28;;;7.58;69.18
29371;BME280;16357;52.188;7.838;2023-02-02T08:03:31;101317.50;;;7.61;69.35
29371;BME280;16357;52.188;7.838;2023-02-02T08:05:58;101320.88;;;7.63;68.88
29371;BME280;16357;52.188;7.838;2023-02-02T08:08:24;101317.97;;;7.66;69.04
29371;BME280;16357;52.188;7.838;2023-02-02T08:10:52;101317.84;;;7.67;69.00
29371;BME280;16357;52.188;7.838;2023-02-02T08:13:19;101321.25;;;7.69;68.91
29371;BME280;16357;52.188;7.838;2023-02-02T08:15:46;101324.66;;;7.72;69.17
29371;BME280;16357;52.188;7.838;2023-02-02T08:18:12;101328.19;;;7.72;68.96
29371;BME280;16357;52.188;7.838;2023-02-02T08:20:39;101328.91;;;7.74;68.85
29371;BME280;16357;52.188;7.838;2023-02-02T08:23:05;101330.59;;;7.75;68.55
29371;BME280;16357;52.188;7.838;2023-02-02T08:25:38;101327.81;;;7.77;68.61
29371;BME280;16357;52.188;7.838;2023-02-02T08:28:05;101330.34;;;7.78;68.45
29371;BME280;16357;52.188;7.838;2023-02-02T08:30:33;101326.69;;;7.79;68.51
29371;BME280;16357;52.188;7.838;2023-02-02T08:33:00;101332.03;;;7.79;68.44
29371;BME280;16357;52.188;7.838;2023-02-02T08:35:26;101338.09;;;7.81;68.65
29371;BME280;16357;52.188;7.838;2023-02-02T08:37:53;101326.47;;;7.82;68.60
29371;BME280;16357;52.188;7.838;2023-02-02T08:40:19;101337.00;;;7.84;68.84
29371;BME280;16357;52.188;7.838;2023-02-02T08:42:45;101336.91;;;7.85;68.78
29371;BME280;16357;52.188;7.838;2023-02-02T08:45:16;101347.22;;;7.90;69.39
29371;BME280;16357;52.188;7.838;2023-02-02T08:48:02;101349.50;;;7.95;68.96
29371;BME280;16357;52.188;7.838;2023-02-02T08:50:37;101351.91;;;7.98;69.21
29371;BME280;16357;52.188;7.838;2023-02-02T08:53:04;101349.97;;;8.00;69.56
29371;BME280;16357;52.188;7.838;2023-02-02T08:55:31;101357.72;;;8.03;68.93
29371;BME280;16357;52.188;7.838;2023-02-02T08:57:57;101366.47;;;8.05;68.97
29371;BME280;16357;52.188;7.838;2023-02-02T09:00:24;101368.91;;;8.08;69.16
29371;BME280;16357;52.188;7.838;2023-02-02T09:02:50;101370.34;;;8.12;69.18
29371;BME280;16357;52.188;7.838;2023-02-02T09:05:17;101378.22;;;8.13;69.19
29371;BME280;16357;52.188;7.838;2023-02-02T09:07:44;101379.81;;;8.16;68.78
29371;BME280;16357;52.188;7.838;2023-02-02T09:10:10;101384.94;;;8.19;68.91
29371;BME280;16357;52.188;7.838;2023-02-02T09:12:37;101390.13;;;8.21;68.72
29371;BME280;16357;52.188;7.838;2023-02-02T09:15:03;101382.00;;;8.22;68.56
29371;BME280;16357;52.188;7.838;2023-02-02T09:17:30;101387.09;;;8.25;69.03
29371;BME280;16357;52.188;7.838;2023-02-02T09:19:56;101394.13;;;8.26;68.50
29371;BME280;16357;52.188;7.838;2023-02-02T09:22:23;101397.53;;;8.28;68.43
29371;BME280;16357;52.188;7.838;2023-02-02T09:24:49;101399.25;;;8.29;68.57
29371;BME280;16357;52.188;7.838;2023-02-02T09:27:16;101400.19;;;8.28;68.46
29371;BME280;16357;52.188;7.838;2023-02-02T09:29:42;101409.94;;;8.29;68.67
29371;BME280;16357;52.188;7.838;2023-02-02T09:32:09;101400.09;;;8.30;68.78
29371;BME280;16357;52.188;7.838;2023-02-02T09:34:35;101407.97;;;8.31;68.52
29371;BME280;16357;52.188;7.838;2023-02-02T09:37:02;101411.38;;;8.33;68.58
29371;BME280;16357;52.188;7.838;2023-02-02T09:39:28;101408.59;;;8.35;69.33
29371;BME280;16357;52.188;7.838;2023-02-02T09:52:39;101437.38;;;8.54;68.49
29371;BME280;16357;52.188;7.838;2023-02-02T09:55:17;101438.09;;;8.56;68.29
29371;BME280;16357;52.188;7.838;2023-02-02T09:57:52;101444.88;;;8.60;68.81
29371;BME280;16357;52.188;7.838;2023-02-02T10:00:33;101445.59;;;8.62;68.23
29371;BME280;16357;52.188;7.838;2023-02-02T10:03:05;101444.50;;;8.65;68.38
29371;BME280;16357;52.188;7.838;2023-02-02T10:05:44;101454.09;;;8.67;68.27
29371;BME280;16357;52.188;7.838;2023-02-02T10:08:19;101461.88;;;8.70;68.77
29371;BME280;16357;52.188;7.838;2023-02-02T10:11:04;101468.78;;;8.73;68.58
29371;BME280;16357;52.188;7.838;2023-02-02T10:13:34;101471.34;;;8.74;68.18
29371;BME280;16357;52.188;7.838;2023-02-02T10:16:12;101471.09;;;8.77;68.27
29371;BME280;16357;52.188;7.838;2023-02-02T10:18:54;101470.94;;;8.79;68.22
29371;BME280;16357;52.188;7.838;2023-02-02T10:21:37;101475.19;;;8.82;68.61
29371;BME280;16357;52.188;7.838;2023-02-02T10:24:19;101474.97;;;8.85;68.12
29371;BME280;16357;52.188;7.838;2023-02-02T10:26:52;101482.72;;;8.88;68.35
29371;BME280;16357;52.188;7.838;2023-02-02T10:37:48;101498.16;;;8.95;68.02
29371;BME280;16357;52.188;7.838;2023-02-02T10:40:56;101498.00;;;8.97;67.89
29371;BME280;16357;52.188;7.838;2023-02-02T10:46:20;101495.94;;;9.00;68.03
29371;BME280;16357;52.188;7.838;2023-02-02T10:48:49;101496.78;;;9.01;68.13
29371;BME280;16357;52.188;7.838;2023-02-02T10:51:27;101501.88;;;9.04;67.83
29371;BME280;16357;52.188;7.838;2023-02-02T10:53:56;101496.38;;;9.06;67.93
29371;BME280;16357;52.188;7.838;2023-02-02T10:56:36;101496.16;;;9.09;67.83
29371;BME280;16357;52.188;7.838;2023-02-02T10:59:10;101497.84;;;9.10;67.74
29371;BME280;16357;52.188;7.838;2023-02-02T11:01:36;101490.53;;;9.12;67.93
29371;BME280;16357;52.188;7.838;2023-02-02T11:04:03;101490.41;;;9.13;67.89
29371;BME280;16357;52.188;7.838;2023-02-02T11:06:48;101490.16;;;9.16;68.02
29371;BME280;16357;52.188;7.838;2023-02-02T11:09:25;101488.78;;;9.22;68.13
29371;BME280;16357;52.188;7.838;2023-02-02T11:11:58;101480.50;;;9.25;68.21
29371;BME280;16357;52.188;7.838;2023-02-02T11:14:41;101479.25;;;9.29;68.20
29371;BME280;16357;52.188;7.838;2023-02-02T11:17:24;101475.34;;;9.33;67.95
29371;BME280;16357;52.188;7.838;2023-02-02T11:19:51;101489.31;;;9.37;67.69
29371;BME280;16357;52.188;7.838;2023-02-02T11:22:35;101490.75;;;9.41;67.70
29371;BME280;16357;52.188;7.838;2023-02-02T11:27:37;101497.41;;;9.47;67.51
29371;BME280;16357;52.188;7.838;2023-02-02T11:30:25;101503.34;;;9.50;67.55
29371;BME280;16357;52.188;7.838;2023-02-02T11:32:53;101498.72;;;9.52;67.24
29371;BME280;16357;52.188;7.838;2023-02-02T11:35:22;101502.97;;;9.55;67.24
29371;BME280;16357;52.188;7.838;2023-02-02T11:42:59;101502.13;;;9.54;66.37
29371;BME280;16357;52.188;7.838;2023-02-02T11:45:33;101505.66;;;9.55;66.94
29371;BME280;16357;52.188;7.838;2023-02-02T11:48:14;101511.84;;;9.55;67.19
29371;BME280;16357;52.188;7.838;2023-02-02T11:50:47;101515.50;;;9.54;66.77
29371;BME280;16357;52.188;7.838;2023-02-02T11:55:51;101511.28;;;9.52;66.95
29371;BME280;16357;52.188;7.838;2023-02-02T11:58:22;101507.75;;;9.51;66.84
29371;BME280;16357;52.188;7.838;2023-02-02T12:01:00;101514.78;;;9.52;67.00
29371;BME280;16357;52.188;7.838;2023-02-02T12:03:34;101509.59;;;9.51;67.19
29371;BME280;16357;52.188;7.838;2023-02-02T12:06:18;101510.28;;;9.53;67.37
29371;BME280;16357;52.188;7.838;2023-02-02T12:08:45;101506.63;;;9.54;67.24
29371;BME280;16357;52.188;7.838;2023-02-02T12:12:22;101509.88;;;9.57;67.13
29371;BME280;16357;52.188;7.838;2023-02-02T12:14:34;101513.28;;;9.59;67.08
29371;BME280;16357;52.188;7.838;2023-02-02T12:20:08;101507.78;;;9.61;67.30
29371;BME280;16357;52.188;7.838;2023-02-02T12:29:16;101504.88;;;9.64;67.11
29371;BME280;16357;52.188;7.838;2023-02-02T12:34:18;101513.03;;;9.62;66.49
29371;BME280;16357;52.188;7.838;2023-02-02T12:39:50;101505.97;;;9.61;66.64
29371;BME280;16357;52.188;7.838;2023-02-02T12:42:44;101502.59;;;9.59;66.82
29371;BME280;16357;52.188;7.838;2023-02-02T12:45:36;101511.47;;;9.60;66.95
29371;BME280;16357;52.188;7.838;2023-02-02T12:48:31;101499.91;;;9.59;66.82
29371;BME280;16357;52.188;7.838;2023-02-02T12:54:16;101497.94;;;9.61;66.94
29371;BME280;16357;52.188;7.838;2023-02-02T13:02:35;101501.47;;;9.62;66.76
29371;BME280;16357;52.188;7.838;2023-02-02T13:10:10;101509.63;;;9.60;66.95
29371;BME280;16357;52.188;7.838;2023-02-02T13:12:42;101507.78;;;9.61;66.73
29371;BME280;16357;52.188;7.838;2023-02-02T13:15:15;101502.59;;;9.59;66.64
29371;BME280;16357;52.188;7.838;2023-02-02T13:17:47;101507.94;;;9.59;66.91
29371;BME280;16357;52.188;7.838;2023-02-02T13:20:24;101511.56;;;9.58;66.91
29371;BME280;16357;52.188;7.838;2023-02-02T13:22:56;101507.94;;;9.59;66.86
29371;BME280;16357;52.188;7.838;2023-02-02T13:25:29;101506.22;;;9.58;66.81
29371;BME280;16357;52.188;7.838;2023-02-02T13:27:58;101512.56;;;9.57;66.88
29371;BME280;16357;52.188;7.838;2023-02-02T13:30:31;101508.06;;;9.58;66.78
29371;BME280;16357;52.188;7.838;2023-02-02T13:33:14;101510.88;;;9.56;66.72
29371;BME280;16357;52.188;7.838;2023-02-02T13:35:51;101513.56;;;9.56;67.04
29371;BME280;16357;52.188;7.838;2023-02-02T13:38:24;101506.50;;;9.55;66.59
29371;BME280;16357;52.188;7.838;2023-02-02T13:40:59;101514.66;;;9.54;66.54
29371;BME280;16357;52.188;7.838;2023-02-02T13:43:42;101511.28;;;9.52;66.83
29371;BME280;16357;52.188;7.838;2023-02-02T13:54:39;101519.09;;;9.43;66.55
29371;BME280;16357;52.188;7.838;2023-02-02T14:02:59;101513.56;;;9.35;66.80
29371;BME280;16357;52.188;7.838;2023-02-02T14:05:38;101525.22;;;9.34;66.68
29371;BME280;16357;52.188;7.838;2023-02-02T14:08:20;101522.81;;;9.31;66.89
29371;BME280;16357;52.188;7.838;2023-02-02T14:16:42;101519.56;;;9.28;67.24
29371;BME280;16357;52.188;7.838;2023-02-02T14:19:14;101524.91;;;9.28;67.28
29371;BME280;16357;52.188;7.838;2023-02-02T14:26:53;101539.25;;;9.27;66.92
29371;BME280;16357;52.188;7.838;2023-02-02T14:34:51;101532.31;;;9.24;66.86
29371;BME280;16357;52.188;7.838;2023-02-02T14:37:48;101534.88;;;9.26;67.19
29371;BME280;16357;52.188;7.838;2023-02-02T14:40:45;101552.06;;;9.23;66.88
29371;BME280;16357;52.188;7.838;2023-02-02T14:43:32;101543.28;;;9.21;66.74
29371;BME280;16357;52.188;7.838;2023-02-02T14:48:40;101552.56;;;9.17;67.47
29371;BME280;16357;52.188;7.838;2023-02-02T14:51:23;101538.47;;;9.15;67.32
29371;BME280;16357;52.188;7.838;2023-02-02T14:53:53;101531.28;;;9.15;67.08
29371;BME280;16357;52.188;7.838;2023-02-02T14:56:21;101533.09;;;9.15;67.34
29371;BME280;16357;52.188;7.838;2023-02-02T14:59:04;101533.94;;;9.15;67.25
29371;BME280;16357;52.188;7.838;2023-02-02T15:01:34;101541.97;;;9.15;67.12
29371;BME280;16357;52.188;7.838;2023-02-02T15:06:48;101551.00;;;9.14;67.53
29371;BME280;16357;52.188;7.838;2023-02-02T15:17:06;101563.41;;;9.15;67.44
29371;BME280;16357;52.188;7.838;2023-02-02T15:19:40;101561.56;;;9.16;67.66
29371;BME280;16357;52.188;7.838;2023-02-02T15:22:31;101557.94;;;9.17;67.47
29371;BME280;16357;52.188;7.838;2023-02-02T15:25:05;101564.13;;;9.17;67.67
29371;BME280;16357;52.188;7.838;2023-02-02T15:27:37;101569.47;;;9.17;67.68
29371;BME280;16357;52.188;7.838;2023-02-02T15:30:21;101570.31;;;9.18;67.57
29371;BME280;16357;52.188;7.838;2023-02-02T15:32:49;101564.84;;;9.19;67.48